sensor_id;sensor_type;location;lat;lon;timestamp;P1;durP1;ratioP1;P2;durP2;ratioP2
20527;SDS011;23612;50.894;10.700;2023-04-03T00:02:04;8.63;;;2.60;;
20527;SDS011;23612;50.894;10.700;2023-04-03T00:04:30;8.87;;;2.30;;
20527;SDS011;23612;50.894;10.700;2023-04-03T00:06:55;6.03;;;2.67;;
20527;SDS011;23612;50.894;10.700;2023-04-03T00:09:21;8.97;;;2.70;;
20527;SDS011;23612;50.894;10.700;2023-04-03T00:11:46;5.80;;;2.20;;
20527;SDS011;23612;50.894;10.700;2023-04-03T00:14:11;10.50;;;2.50;;
20527;SDS011;23612;50.894;10.700;2023-04-03T00:16:37;7.93;;;2.70;;
20527;SDS011;23612;50.894;10.700;2023-04-03T00:19:02;8.10;;;1.93;;
20527;SDS011;23612;50.894;10.700;2023-04-03T00:21:28;7.30;;;2.57;;
20527;SDS011;23612;50.894;10.700;2023-04-03T00:23:53;2.90;;;1.83;;
20527;SDS011;23612;50.894;10.700;2023-04-03T00:26:19;9.97;;;2.53;;
20527;SDS011;23612;50.894;10.700;2023-04-03T00:28:45;3.97;;;2.17;;
20527;SDS011;23612;50.894;10.700;2023-04-03T00:31:11;7.60;;;2.10;;
20527;SDS011;23612;50.894;10.700;2023-04-03T00:33:39;6.90;;;2.57;;
20527;SDS011;23612;50.894;10.700;2023-04-03T00:36:06;9.53;;;2.77;;
20527;SDS011;23612;50.894;10.700;2023-04-03T00:38:34;11.47;;;2.17;;
20527;SDS011;23612;50.894;10.700;2023-04-03T00:40:59;8.87;;;2.53;;
20527;SDS011;23612;50.894;10.700;2023-04-03T00:43:25;4.83;;;2.20;;
20527;SDS011;23612;50.894;10.700;2023-04-03T00:45:54;9.77;;;3.23;;
20527;SDS011;23612;50.894;10.700;2023-04-03T00:48:22;6.10;;;2.30;;
20527;SDS011;23612;50.894;10.700;2023-04-03T00:50:59;7.53;;;2.50;;
20527;SDS011;23612;50.894;10.700;2023-04-03T00:53:26;6.57;;;1.77;;
20527;SDS011;23612;50.894;10.700;2023-04-03T00:55:59;7.57;;;2.20;;
20527;SDS011;23612;50.894;10.700;2023-04-03T00:58:32;12.70;;;2.63;;
20527;SDS011;23612;50.894;10.700;2023-04-03T01:01:00;8.00;;;2.47;;
20527;SDS011;23612;50.894;10.700;2023-04-03T01:03:31;8.53;;;2.40;;
20527;SDS011;23612;50.894;10.700;2023-04-03T01:05:57;6.97;;;2.07;;
20527;SDS011;23612;50.894;10.700;2023-04-03T01:08:23;6.13;;;2.10;;
20527;SDS011;23612;50.894;10.700;2023-04-03T01:10:48;9.00;;;2.80;;
20527;SDS011;23612;50.894;10.700;2023-04-03T01:13:28;6.20;;;2.33;;
20527;SDS011;23612;50.894;10.700;2023-04-03T01:15:56;7.90;;;2.60;;
20527;SDS011;23612;50.894;10.700;2023-04-03T01:18:25;7.50;;;1.80;;
20527;SDS011;23612;50.894;10.700;2023-04-03T01:26:08;11.83;;;2.37;;
20527;SDS011;23612;50.894;10.700;2023-04-03T01:28:36;11.67;;;2.63;;
20527;SDS011;23612;50.894;10.700;2023-04-03T01:31:06;11.77;;;2.47;;
20527;SDS011;23612;50.894;10.700;2023-04-03T01:33:45;8.80;;;2.47;;
20527;SDS011;23612;50.894;10.700;2023-04-03T01:36:14;15.03;;;2.47;;
20527;SDS011;23612;50.894;10.700;2023-04-03T01:38:44;8.53;;;2.47;;
20527;SDS011;23612;50.894;10.700;2023-04-03T01:41:10;11.23;;;3.27;;
20527;SDS011;23612;50.894;10.700;2023-04-03T01:43:35;6.27;;;2.33;;
20527;SDS011;23612;50.894;10.700;2023-04-03T01:46:01;5.17;;;2.30;;
20527;SDS011;23612;50.894;10.700;2023-04-03T01:48:26;6.20;;;2.27;;
20527;SDS011;23612;50.894;10.700;2023-04-03T01:50:52;5.07;;;2.07;;
20527;SDS011;23612;50.894;10.700;2023-04-03T01:53:18;6.67;;;2.27;;
20527;SDS011;23612;50.894;10.700;2023-04-03T01:55:43;8.43;;;2.23;;
20527;SDS011;23612;50.894;10.700;2023-04-03T01:58:09;9.93;;;3.70;;
20527;SDS011;23612;50.894;10.700;2023-04-03T02:00:35;9.47;;;2.80;;
20527;SDS011;23612;50.894;10.700;2023-04-03T02:03:00;9.77;;;2.80;;
20527;SDS011;23612;50.894;10.700;2023-04-03T02:05:26;10.30;;;2.63;;
20527;SDS011;23612;50.894;10.700;2023-04-03T02:07:52;7.03;;;2.90;;
20527;SDS011;23612;50.894;10.700;2023-04-03T02:10:17;2.60;;;1.80;;
20527;SDS011;23612;50.894;10.700;2023-04-03T02:12:43;9.77;;;2.67;;
20527;SDS011;23612;50.894;10.700;2023-04-03T02:15:08;11.07;;;4.07;;
20527;SDS011;23612;50.894;10.700;2023-04-03T02:17:35;8.70;;;3.13;;
20527;SDS011;23612;50.894;10.700;2023-04-03T02:20:00;8.90;;;2.63;;
20527;SDS011;23612;50.894;10.700;2023-04-03T02:22:26;15.00;;;3.90;;
20527;SDS011;23612;50.894;10.700;2023-04-03T02:24:52;6.53;;;3.17;;
20527;SDS011;23612;50.894;10.700;2023-04-03T02:27:17;10.83;;;2.97;;
20527;SDS011;23612;50.894;10.700;2023-04-03T02:29:43;11.43;;;4.30;;
20527;SDS011;23612;50.894;10.700;2023-04-03T02:32:08;9.90;;;3.40;;
20527;SDS011;23612;50.894;10.700;2023-04-03T02:34:34;9.73;;;4.20;;
20527;SDS011;23612;50.894;10.700;2023-04-03T02:36:59;9.57;;;3.80;;
20527;SDS011;23612;50.894;10.700;2023-04-03T02:39:25;9.67;;;3.40;;
20527;SDS011;23612;50.894;10.700;2023-04-03T02:41:51;9.13;;;3.40;;
20527;SDS011;23612;50.894;10.700;2023-04-03T02:44:16;8.67;;;3.73;;
20527;SDS011;23612;50.894;10.700;2023-04-03T02:46:42;8.83;;;3.30;;
20527;SDS011;23612;50.894;10.700;2023-04-03T02:49:08;6.37;;;2.87;;
20527;SDS011;23612;50.894;10.700;2023-04-03T02:51:33;11.80;;;3.20;;
20527;SDS011;23612;50.894;10.700;2023-04-03T02:53:59;9.13;;;3.00;;
20527;SDS011;23612;50.894;10.700;2023-04-03T02:56:25;10.57;;;3.07;;
20527;SDS011;23612;50.894;10.700;2023-04-03T02:58:51;10.20;;;3.30;;
20527;SDS011;23612;50.894;10.700;2023-04-03T03:01:17;8.67;;;3.37;;
20527;SDS011;23612;50.894;10.700;2023-04-03T03:03:43;9.37;;;3.30;;
20527;SDS011;23612;50.894;10.700;2023-04-03T03:06:13;10.33;;;3.20;;
20527;SDS011;23612;50.894;10.700;2023-04-03T03:08:41;5.93;;;3.30;;
20527;SDS011;23612;50.894;10.700;2023-04-03T03:11:07;11.90;;;3.73;;
20527;SDS011;23612;50.894;10.700;2023-04-03T03:13:32;6.03;;;3.67;;
20527;SDS011;23612;50.894;10.700;2023-04-03T03:15:58;11.60;;;3.93;;
20527;SDS011;23612;50.894;10.700;2023-04-03T03:18:24;5.93;;;2.93;;
20527;SDS011;23612;50.894;10.700;2023-04-03T03:20:53;13.93;;;4.00;;
20527;SDS011;23612;50.894;10.700;2023-04-03T03:23:20;12.10;;;3.87;;
20527;SDS011;23612;50.894;10.700;2023-04-03T03:25:47;10.80;;;3.87;;
20527;SDS011;23612;50.894;10.700;2023-04-03T03:28:13;7.60;;;3.47;;
20527;SDS011;23612;50.894;10.700;2023-04-03T03:30:38;12.10;;;3.87;;
20527;SDS011;23612;50.894;10.700;2023-04-03T03:33:04;10.80;;;3.87;;
20527;SDS011;23612;50.894;10.700;2023-04-03T03:35:29;9.13;;;4.03;;
20527;SDS011;23612;50.894;10.700;2023-04-03T03:37:55;7.73;;;3.53;;
20527;SDS011;23612;50.894;10.700;2023-04-03T03:40:20;9.93;;;3.93;;
20527;SDS011;23612;50.894;10.700;2023-04-03T03:42:46;10.97;;;4.00;;
20527;SDS011;23612;50.894;10.700;2023-04-03T03:45:11;10.23;;;3.53;;
20527;SDS011;23612;50.894;10.700;2023-04-03T03:47:37;5.80;;;3.60;;
20527;SDS011;23612;50.894;10.700;2023-04-03T03:50:03;8.57;;;3.90;;
20527;SDS011;23612;50.894;10.700;2023-04-03T03:52:29;15.17;;;3.83;;
20527;SDS011;23612;50.894;10.700;2023-04-03T03:54:55;7.13;;;3.33;;
20527;SDS011;23612;50.894;10.700;2023-04-03T03:57:21;13.47;;;3.80;;
20527;SDS011;23612;50.894;10.700;2023-04-03T03:59:47;10.27;;;3.43;;
20527;SDS011;23612;50.894;10.700;2023-04-03T04:02:13;10.57;;;3.90;;
20527;SDS011;23612;50.894;10.700;2023-04-03T04:04:39;11.87;;;3.63;;
20527;SDS011;23612;50.894;10.700;2023-04-03T04:07:05;9.77;;;4.60;;
20527;SDS011;23612;50.894;10.700;2023-04-03T04:09:30;10.40;;;4.20;;
20527;SDS011;23612;50.894;10.700;2023-04-03T04:11:56;15.93;;;6.10;;
20527;SDS011;23612;50.894;10.700;2023-04-03T04:14:22;24.57;;;10.13;;
20527;SDS011;23612;50.894;10.700;2023-04-03T04:16:48;9.77;;;4.23;;
20527;SDS011;23612;50.894;10.700;2023-04-03T04:19:13;15.93;;;6.80;;
20527;SDS011;23612;50.894;10.700;2023-04-03T04:21:39;11.57;;;4.80;;
20527;SDS011;23612;50.894;10.700;2023-04-03T04:24:06;13.70;;;5.77;;
20527;SDS011;23612;50.894;10.700;2023-04-03T04:26:32;18.90;;;9.37;;
20527;SDS011;23612;50.894;10.700;2023-04-03T04:28:58;20.23;;;7.43;;
20527;SDS011;23612;50.894;10.700;2023-04-03T04:31:23;9.50;;;4.93;;
20527;SDS011;23612;50.894;10.700;2023-04-03T04:33:49;8.43;;;4.43;;
20527;SDS011;23612;50.894;10.700;2023-04-03T04:36:14;11.87;;;4.13;;
20527;SDS011;23612;50.894;10.700;2023-04-03T04:38:40;8.87;;;4.10;;
20527;SDS011;23612;50.894;10.700;2023-04-03T04:41:06;11.07;;;5.27;;
20527;SDS011;23612;50.894;10.700;2023-04-03T04:43:32;9.43;;;4.33;;
20527;SDS011;23612;50.894;10.700;2023-04-03T04:46:04;9.47;;;3.97;;
20527;SDS011;23612;50.894;10.700;2023-04-03T04:48:32;8.70;;;4.50;;
20527;SDS011;23612;50.894;10.700;2023-04-03T04:50:58;9.27;;;5.33;;
20527;SDS011;23612;50.894;10.700;2023-04-03T04:53:23;14.33;;;6.20;;
20527;SDS011;23612;50.894;10.700;2023-04-03T04:55:49;8.43;;;4.53;;
20527;SDS011;23612;50.894;10.700;2023-04-03T04:58:14;10.10;;;5.07;;
20527;SDS011;23612;50.894;10.700;2023-04-03T05:00:40;9.83;;;5.20;;
20527;SDS011;23612;50.894;10.700;2023-04-03T05:03:05;13.23;;;4.93;;
20527;SDS011;23612;50.894;10.700;2023-04-03T05:05:31;11.50;;;6.57;;
20527;SDS011;23612;50.894;10.700;2023-04-03T05:07:56;11.17;;;5.30;;
20527;SDS011;23612;50.894;10.700;2023-04-03T05:10:22;9.23;;;5.03;;
20527;SDS011;23612;50.894;10.700;2023-04-03T05:12:47;17.07;;;5.00;;
20527;SDS011;23612;50.894;10.700;2023-04-03T05:15:13;19.13;;;6.70;;
20527;SDS011;23612;50.894;10.700;2023-04-03T05:17:38;15.17;;;7.33;;
20527;SDS011;23612;50.894;10.700;2023-04-03T05:20:04;15.70;;;6.37;;
20527;SDS011;23612;50.894;10.700;2023-04-03T05:22:30;16.00;;;5.37;;
20527;SDS011;23612;50.894;10.700;2023-04-03T05:24:56;10.17;;;5.03;;
20527;SDS011;23612;50.894;10.700;2023-04-03T05:27:21;17.63;;;8.07;;
20527;SDS011;23612;50.894;10.700;2023-04-03T05:29:49;14.00;;;7.23;;
20527;SDS011;23612;50.894;10.700;2023-04-03T05:32:14;14.93;;;7.47;;
20527;SDS011;23612;50.894;10.700;2023-04-03T05:34:40;14.27;;;7.90;;
20527;SDS011;23612;50.894;10.700;2023-04-03T05:37:06;12.50;;;6.87;;
20527;SDS011;23612;50.894;10.700;2023-04-03T05:39:32;15.33;;;6.60;;
20527;SDS011;23612;50.894;10.700;2023-04-03T05:41:58;14.37;;;6.30;;
20527;SDS011;23612;50.894;10.700;2023-04-03T05:44:24;15.63;;;7.43;;
20527;SDS011;23612;50.894;10.700;2023-04-03T05:46:49;11.57;;;6.83;;
20527;SDS011;23612;50.894;10.700;2023-04-03T05:49:15;11.00;;;7.07;;
20527;SDS011;23612;50.894;10.700;2023-04-03T05:51:40;16.00;;;7.10;;
20527;SDS011;23612;50.894;10.700;2023-04-03T05:54:39;14.80;;;7.20;;
20527;SDS011;23612;50.894;10.700;2023-04-03T05:56:58;14.13;;;8.23;;
20527;SDS011;23612;50.894;10.700;2023-04-03T05:59:23;15.10;;;7.83;;
20527;SDS011;23612;50.894;10.700;2023-04-03T06:01:49;13.70;;;8.50;;
20527;SDS011;23612;50.894;10.700;2023-04-03T06:04:14;12.77;;;8.30;;
20527;SDS011;23612;50.894;10.700;2023-04-03T06:06:50;14.80;;;7.67;;
20527;SDS011;23612;50.894;10.700;2023-04-03T06:09:18;16.83;;;8.07;;
20527;SDS011;23612;50.894;10.700;2023-04-03T06:11:48;18.33;;;7.83;;
20527;SDS011;23612;50.894;10.700;2023-04-03T06:14:13;16.97;;;8.43;;
20527;SDS011;23612;50.894;10.700;2023-04-03T06:16:39;20.03;;;8.07;;
20527;SDS011;23612;50.894;10.700;2023-04-03T06:19:05;16.23;;;8.50;;
20527;SDS011;23612;50.894;10.700;2023-04-03T06:21:32;16.23;;;9.10;;
20527;SDS011;23612;50.894;10.700;2023-04-03T06:23:58;18.90;;;9.20;;
20527;SDS011;23612;50.894;10.700;2023-04-03T06:26:23;18.30;;;10.03;;
20527;SDS011;23612;50.894;10.700;2023-04-03T06:28:49;15.87;;;8.63;;
20527;SDS011;23612;50.894;10.700;2023-04-03T06:31:14;15.20;;;8.77;;
20527;SDS011;23612;50.894;10.700;2023-04-03T06:33:40;14.60;;;8.97;;
20527;SDS011;23612;50.894;10.700;2023-04-03T06:36:06;16.37;;;8.43;;
20527;SDS011;23612;50.894;10.700;2023-04-03T06:38:32;15.47;;;8.27;;
20527;SDS011;23612;50.894;10.700;2023-04-03T06:40:59;13.27;;;8.13;;
20527;SDS011;23612;50.894;10.700;2023-04-03T06:43:25;15.10;;;8.00;;
20527;SDS011;23612;50.894;10.700;2023-04-03T06:45:51;15.10;;;8.20;;
20527;SDS011;23612;50.894;10.700;2023-04-03T06:48:16;11.07;;;8.07;;
20527;SDS011;23612;50.894;10.700;2023-04-03T06:50:42;15.83;;;8.10;;
20527;SDS011;23612;50.894;10.700;2023-04-03T06:53:08;16.07;;;7.77;;
20527;SDS011;23612;50.894;10.700;2023-04-03T06:55:33;15.73;;;8.90;;
20527;SDS011;23612;50.894;10.700;2023-04-03T06:57:59;14.93;;;9.47;;
20527;SDS011;23612;50.894;10.700;2023-04-03T07:00:25;14.53;;;9.50;;
20527;SDS011;23612;50.894;10.700;2023-04-03T07:02:51;13.60;;;8.13;;
20527;SDS011;23612;50.894;10.700;2023-04-03T07:05:16;11.57;;;7.17;;
20527;SDS011;23612;50.894;10.700;2023-04-03T07:07:42;18.17;;;7.10;;
20527;SDS011;23612;50.894;10.700;2023-04-03T07:10:08;15.27;;;7.00;;
20527;SDS011;23612;50.894;10.700;2023-04-03T07:12:35;14.23;;;7.30;;
20527;SDS011;23612;50.894;10.700;2023-04-03T07:15:00;14.53;;;6.87;;
20527;SDS011;23612;50.894;10.700;2023-04-03T07:17:26;11.93;;;6.50;;
20527;SDS011;23612;50.894;10.700;2023-04-03T07:19:51;15.40;;;6.97;;
20527;SDS011;23612;50.894;10.700;2023-04-03T07:22:17;10.37;;;6.27;;
20527;SDS011;23612;50.894;10.700;2023-04-03T07:24:43;10.13;;;6.00;;
20527;SDS011;23612;50.894;10.700;2023-04-03T07:27:09;14.43;;;6.20;;
20527;SDS011;23612;50.894;10.700;2023-04-03T07:29:37;12.03;;;6.30;;
20527;SDS011;23612;50.894;10.700;2023-04-03T07:32:03;13.60;;;5.70;;
20527;SDS011;23612;50.894;10.700;2023-04-03T07:34:30;11.17;;;5.47;;
20527;SDS011;23612;50.894;10.700;2023-04-03T07:36:56;11.60;;;5.70;;
20527;SDS011;23612;50.894;10.700;2023-04-03T07:39:22;11.30;;;5.43;;
20527;SDS011;23612;50.894;10.700;2023-04-03T07:41:48;10.37;;;5.43;;
20527;SDS011;23612;50.894;10.700;2023-04-03T07:44:13;12.47;;;5.57;;
20527;SDS011;23612;50.894;10.700;2023-04-03T07:46:39;9.03;;;4.23;;
20527;SDS011;23612;50.894;10.700;2023-04-03T07:49:05;10.97;;;4.23;;
20527;SDS011;23612;50.894;10.700;2023-04-03T07:51:30;7.47;;;4.47;;
20527;SDS011;23612;50.894;10.700;2023-04-03T07:53:56;10.03;;;4.30;;
20527;SDS011;23612;50.894;10.700;2023-04-03T07:56:21;12.97;;;5.00;;
20527;SDS011;23612;50.894;10.700;2023-04-03T07:58:47;18.50;;;5.80;;
20527;SDS011;23612;50.894;10.700;2023-04-03T08:01:13;21.30;;;8.47;;
20527;SDS011;23612;50.894;10.700;2023-04-03T08:03:39;30.30;;;10.27;;
20527;SDS011;23612;50.894;10.700;2023-04-03T08:06:06;24.97;;;10.03;;
20527;SDS011;23612;50.894;10.700;2023-04-03T08:08:33;22.37;;;10.63;;
20527;SDS011;23612;50.894;10.700;2023-04-03T08:10:59;36.67;;;13.15;;
20527;SDS011;23612;50.894;10.700;2023-04-03T08:13:27;33.10;;;14.50;;
20527;SDS011;23612;50.894;10.700;2023-04-03T08:15:53;26.30;;;13.93;;
20527;SDS011;23612;50.894;10.700;2023-04-03T08:18:18;27.17;;;12.75;;
20527;SDS011;23612;50.894;10.700;2023-04-03T08:20:46;27.27;;;11.45;;
20527;SDS011;23612;50.894;10.700;2023-04-03T08:23:12;20.90;;;10.05;;
20527;SDS011;23612;50.894;10.700;2023-04-03T08:25:38;15.40;;;9.55;;
20527;SDS011;23612;50.894;10.700;2023-04-03T08:28:05;15.50;;;8.27;;
20527;SDS011;23612;50.894;10.700;2023-04-03T08:30:31;11.82;;;6.57;;
20527;SDS011;23612;50.894;10.700;2023-04-03T08:32:57;10.45;;;5.60;;
20527;SDS011;23612;50.894;10.700;2023-04-03T08:35:24;12.13;;;5.53;;
20527;SDS011;23612;50.894;10.700;2023-04-03T08:37:50;11.55;;;4.88;;
20527;SDS011;23612;50.894;10.700;2023-04-03T08:40:16;7.68;;;3.58;;
20527;SDS011;23612;50.894;10.700;2023-04-03T08:42:58;7.93;;;3.35;;
20527;SDS011;23612;50.894;10.700;2023-04-03T08:45:52;4.25;;;2.30;;
20527;SDS011;23612;50.894;10.700;2023-04-03T08:48:27;6.13;;;2.08;;
20527;SDS011;23612;50.894;10.700;2023-04-03T08:50:58;4.18;;;2.40;;
20527;SDS011;23612;50.894;10.700;2023-04-03T08:53:28;2.92;;;1.92;;
20527;SDS011;23612;50.894;10.700;2023-04-03T08:55:57;1.70;;;1.40;;
20527;SDS011;23612;50.894;10.700;2023-04-03T08:58:26;4.20;;;1.70;;
20527;SDS011;23612;50.894;10.700;2023-04-03T09:01:14;3.33;;;1.60;;
20527;SDS011;23612;50.894;10.700;2023-04-03T09:03:47;4.70;;;1.60;;
20527;SDS011;23612;50.894;10.700;2023-04-03T09:06:14;1.90;;;1.40;;
20527;SDS011;23612;50.894;10.700;2023-04-03T09:11:24;3.08;;;1.23;;
20527;SDS011;23612;50.894;10.700;2023-04-03T09:14:12;4.43;;;1.60;;
20527;SDS011;23612;50.894;10.700;2023-04-03T09:16:58;1.95;;;1.30;;
20527;SDS011;23612;50.894;10.700;2023-04-03T09:22:13;3.45;;;1.25;;
20527;SDS011;23612;50.894;10.700;2023-04-03T09:24:51;4.22;;;1.20;;
20527;SDS011;23612;50.894;10.700;2023-04-03T09:28:01;10.48;;;1.42;;
20527;SDS011;23612;50.894;10.700;2023-04-03T09:30:27;2.03;;;1.10;;
20527;SDS011;23612;50.894;10.700;2023-04-03T09:32:54;2.78;;;1.30;;
20527;SDS011;23612;50.894;10.700;2023-04-03T09:37:58;5.38;;;1.35;;
20527;SDS011;23612;50.894;10.700;2023-04-03T09:42:55;4.25;;;1.30;;
20527;SDS011;23612;50.894;10.700;2023-04-03T09:45:25;2.28;;;1.30;;
20527;SDS011;23612;50.894;10.700;2023-04-03T09:48:37;5.22;;;1.17;;
20527;SDS011;23612;50.894;10.700;2023-04-03T09:50:38;7.88;;;1.48;;
20527;SDS011;23612;50.894;10.700;2023-04-03T09:53:58;5.28;;;1.90;;
20527;SDS011;23612;50.894;10.700;2023-04-03T09:58:42;6.70;;;1.80;;
20527;SDS011;23612;50.894;10.700;2023-04-03T10:01:21;4.88;;;1.63;;
20527;SDS011;23612;50.894;10.700;2023-04-03T10:04:03;1.95;;;1.23;;
20527;SDS011;23612;50.894;10.700;2023-04-03T10:06:35;2.55;;;1.38;;
20527;SDS011;23612;50.894;10.700;2023-04-03T10:12:02;4.80;;;1.80;;
20527;SDS011;23612;50.894;10.700;2023-04-03T10:14:30;3.88;;;1.25;;
20527;SDS011;23612;50.894;10.700;2023-04-03T10:17:02;4.13;;;1.95;;
20527;SDS011;23612;50.894;10.700;2023-04-03T10:22:35;2.65;;;1.55;;
20527;SDS011;23612;50.894;10.700;2023-04-03T10:25:16;4.50;;;1.63;;
20527;SDS011;23612;50.894;10.700;2023-04-03T10:27:58;3.08;;;1.73;;
20527;SDS011;23612;50.894;10.700;2023-04-03T10:33:04;9.13;;;2.33;;
20527;SDS011;23612;50.894;10.700;2023-04-03T10:36:02;2.60;;;1.50;;
20527;SDS011;23612;50.894;10.700;2023-04-03T10:38:51;6.18;;;2.00;;
20527;SDS011;23612;50.894;10.700;2023-04-03T10:51:46;2.45;;;1.42;;
20527;SDS011;23612;50.894;10.700;2023-04-03T10:56:55;4.47;;;1.75;;
20527;SDS011;23612;50.894;10.700;2023-04-03T10:59:31;4.75;;;1.48;;
20527;SDS011;23612;50.894;10.700;2023-04-03T11:04:42;4.47;;;1.55;;
20527;SDS011;23612;50.894;10.700;2023-04-03T11:07:15;5.47;;;2.05;;
20527;SDS011;23612;50.894;10.700;2023-04-03T11:09:48;9.68;;;2.00;;
20527;SDS011;23612;50.894;10.700;2023-04-03T11:12:19;3.17;;;1.83;;
20527;SDS011;23612;50.894;10.700;2023-04-03T11:14:52;2.72;;;1.50;;
20527;SDS011;23612;50.894;10.700;2023-04-03T11:22:32;2.95;;;1.60;;
20527;SDS011;23612;50.894;10.700;2023-04-03T11:28:17;3.35;;;1.67;;
20527;SDS011;23612;50.894;10.700;2023-04-03T11:30:29;5.35;;;2.00;;
20527;SDS011;23612;50.894;10.700;2023-04-03T11:36:24;2.17;;;1.65;;
20527;SDS011;23612;50.894;10.700;2023-04-03T11:38:56;4.55;;;1.90;;
20527;SDS011;23612;50.894;10.700;2023-04-03T11:41:26;4.18;;;1.85;;
20527;SDS011;23612;50.894;10.700;2023-04-03T11:44:01;2.63;;;1.77;;
20527;SDS011;23612;50.894;10.700;2023-04-03T12:03:55;3.55;;;1.90;;
20527;SDS011;23612;50.894;10.700;2023-04-03T12:08:58;8.05;;;1.90;;
20527;SDS011;23612;50.894;10.700;2023-04-03T12:11:25;5.45;;;1.90;;
20527;SDS011;23612;50.894;10.700;2023-04-03T12:16:21;4.57;;;1.80;;
20527;SDS011;23612;50.894;10.700;2023-04-03T12:24:23;2.50;;;1.55;;
20527;SDS011;23612;50.894;10.700;2023-04-03T12:29:33;5.28;;;1.90;;
20527;SDS011;23612;50.894;10.700;2023-04-03T12:32:24;4.55;;;1.75;;
20527;SDS011;23612;50.894;10.700;2023-04-03T12:34:57;3.08;;;1.63;;
20527;SDS011;23612;50.894;10.700;2023-04-03T12:48:34;3.50;;;1.58;;
20527;SDS011;23612;50.894;10.700;2023-04-03T12:51:14;4.72;;;1.65;;
20527;SDS011;23612;50.894;10.700;2023-04-03T12:53:54;5.07;;;1.85;;
20527;SDS011;23612;50.894;10.700;2023-04-03T12:56:27;3.30;;;1.80;;
20527;SDS011;23612;50.894;10.700;2023-04-03T12:58:55;4.63;;;1.45;;
20527;SDS011;23612;50.894;10.700;2023-04-03T13:01:38;4.03;;;1.48;;
20527;SDS011;23612;50.894;10.700;2023-04-03T13:04:04;2.03;;;1.50;;
20527;SDS011;23612;50.894;10.700;2023-04-03T13:06:30;3.05;;;1.90;;
20527;SDS011;23612;50.894;10.700;2023-04-03T13:09:02;2.85;;;1.55;;
20527;SDS011;23612;50.894;10.700;2023-04-03T13:11:35;2.60;;;1.10;;
20527;SDS011;23612;50.894;10.700;2023-04-03T13:14:04;2.55;;;1.48;;
20527;SDS011;23612;50.894;10.700;2023-04-03T13:16:39;2.65;;;1.50;;
20527;SDS011;23612;50.894;10.700;2023-04-03T13:19:06;3.88;;;1.50;;
20527;SDS011;23612;50.894;10.700;2023-04-03T13:21:32;1.95;;;1.20;;
20527;SDS011;23612;50.894;10.700;2023-04-03T13:24:00;5.40;;;1.30;;
20527;SDS011;23612;50.894;10.700;2023-04-03T13:26:29;4.20;;;1.60;;
20527;SDS011;23612;50.894;10.700;2023-04-03T13:28:57;3.92;;;1.30;;
20527;SDS011;23612;50.894;10.700;2023-04-03T13:31:29;3.75;;;1.70;;
20527;SDS011;23612;50.894;10.700;2023-04-03T13:34:07;3.72;;;1.33;;
20527;SDS011;23612;50.894;10.700;2023-04-03T13:36:41;3.28;;;1.38;;
20527;SDS011;23612;50.894;10.700;2023-04-03T13:41:40;3.95;;;1.63;;
20527;SDS011;23612;50.894;10.700;2023-04-03T13:51:58;4.25;;;1.40;;
20527;SDS011;23612;50.894;10.700;2023-04-03T13:54:32;1.48;;;1.30;;
20527;SDS011;23612;50.894;10.700;2023-04-03T13:56:59;6.55;;;1.30;;
20527;SDS011;23612;50.894;10.700;2023-04-03T13:59:35;9.07;;;1.40;;
20527;SDS011;23612;50.894;10.700;2023-04-03T14:04:27;3.45;;;1.50;;
20527;SDS011;23612;50.894;10.700;2023-04-03T14:06:55;8.27;;;1.45;;
20527;SDS011;23612;50.894;10.700;2023-04-03T14:09:21;6.25;;;1.65;;
20527;SDS011;23612;50.894;10.700;2023-04-03T14:11:49;2.70;;;1.30;;
20527;SDS011;23612;50.894;10.700;2023-04-03T14:14:20;3.65;;;1.50;;
20527;SDS011;23612;50.894;10.700;2023-04-03T14:16:55;2.65;;;1.20;;
20527;SDS011;23612;50.894;10.700;2023-04-03T14:19:24;5.50;;;1.85;;
20527;SDS011;23612;50.894;10.700;2023-04-03T14:21:52;6.60;;;1.58;;
20527;SDS011;23612;50.894;10.700;2023-04-03T14:24:19;5.93;;;1.48;;
20527;SDS011;23612;50.894;10.700;2023-04-03T14:26:45;4.43;;;1.33;;
20527;SDS011;23612;50.894;10.700;2023-04-03T14:29:12;5.00;;;2.58;;
20527;SDS011;23612;50.894;10.700;2023-04-03T14:31:39;6.57;;;4.18;;
20527;SDS011;23612;50.894;10.700;2023-04-03T14:34:05;7.80;;;1.60;;
20527;SDS011;23612;50.894;10.700;2023-04-03T14:36:30;6.90;;;1.73;;
20527;SDS011;23612;50.894;10.700;2023-04-03T14:38:57;3.78;;;1.30;;
20527;SDS011;23612;50.894;10.700;2023-04-03T14:41:25;2.92;;;1.90;;
20527;SDS011;23612;50.894;10.700;2023-04-03T14:43:51;3.42;;;1.70;;
20527;SDS011;23612;50.894;10.700;2023-04-03T14:46:28;7.65;;;1.65;;
20527;SDS011;23612;50.894;10.700;2023-04-03T14:48:57;7.10;;;2.92;;
20527;SDS011;23612;50.894;10.700;2023-04-03T14:51:23;5.72;;;1.98;;
20527;SDS011;23612;50.894;10.700;2023-04-03T14:53:49;7.43;;;1.83;;
20527;SDS011;23612;50.894;10.700;2023-04-03T14:56:23;8.10;;;1.92;;
20527;SDS011;23612;50.894;10.700;2023-04-03T14:58:55;7.72;;;1.92;;
20527;SDS011;23612;50.894;10.700;2023-04-03T15:01:25;12.30;;;5.93;;
20527;SDS011;23612;50.894;10.700;2023-04-03T15:03:51;6.75;;;1.50;;
20527;SDS011;23612;50.894;10.700;2023-04-03T15:06:17;4.97;;;1.90;;
20527;SDS011;23612;50.894;10.700;2023-04-03T15:08:42;3.08;;;1.90;;
20527;SDS011;23612;50.894;10.700;2023-04-03T15:11:09;4.43;;;1.90;;
20527;SDS011;23612;50.894;10.700;2023-04-03T15:13:35;2.80;;;1.73;;
20527;SDS011;23612;50.894;10.700;2023-04-03T15:16:02;4.40;;;1.50;;
20527;SDS011;23612;50.894;10.700;2023-04-03T15:18:29;8.32;;;2.03;;
20527;SDS011;23612;50.894;10.700;2023-04-03T15:20:59;3.00;;;2.05;;
20527;SDS011;23612;50.894;10.700;2023-04-03T15:23:25;5.97;;;2.35;;
20527;SDS011;23612;50.894;10.700;2023-04-03T15:25:51;3.05;;;2.10;;
20527;SDS011;23612;50.894;10.700;2023-04-03T15:28:34;8.23;;;1.80;;
20527;SDS011;23612;50.894;10.700;2023-04-03T15:31:02;2.72;;;1.40;;
20527;SDS011;23612;50.894;10.700;2023-04-03T15:33:28;5.97;;;2.15;;
20527;SDS011;23612;50.894;10.700;2023-04-03T15:35:54;3.78;;;1.50;;
20527;SDS011;23612;50.894;10.700;2023-04-03T15:38:20;3.67;;;1.90;;
20527;SDS011;23612;50.894;10.700;2023-04-03T15:40:45;5.65;;;1.88;;
20527;SDS011;23612;50.894;10.700;2023-04-03T15:43:12;3.65;;;1.85;;
20527;SDS011;23612;50.894;10.700;2023-04-03T15:45:38;4.80;;;1.67;;
20527;SDS011;23612;50.894;10.700;2023-04-03T15:48:04;6.07;;;1.90;;
20527;SDS011;23612;50.894;10.700;2023-04-03T15:50:31;8.25;;;2.20;;
20527;SDS011;23612;50.894;10.700;2023-04-03T15:52:57;4.75;;;2.10;;
20527;SDS011;23612;50.894;10.700;2023-04-03T15:55:26;7.00;;;3.03;;
20527;SDS011;23612;50.894;10.700;2023-04-03T15:57:56;3.95;;;1.98;;
20527;SDS011;23612;50.894;10.700;2023-04-03T16:00:22;5.28;;;3.00;;
20527;SDS011;23612;50.894;10.700;2023-04-03T16:02:48;10.23;;;2.60;;
20527;SDS011;23612;50.894;10.700;2023-04-03T16:05:17;23.25;;;17.92;;
20527;SDS011;23612;50.894;10.700;2023-04-03T16:07:44;4.70;;;2.33;;
20527;SDS011;23612;50.894;10.700;2023-04-03T16:10:11;3.97;;;2.13;;
20527;SDS011;23612;50.894;10.700;2023-04-03T16:12:39;12.32;;;2.28;;
20527;SDS011;23612;50.894;10.700;2023-04-03T16:15:05;6.03;;;1.92;;
20527;SDS011;23612;50.894;10.700;2023-04-03T16:17:31;6.05;;;1.85;;
20527;SDS011;23612;50.894;10.700;2023-04-03T16:19:58;3.03;;;1.80;;
20527;SDS011;23612;50.894;10.700;2023-04-03T16:22:24;48.83;;;3.05;;
20527;SDS011;23612;50.894;10.700;2023-04-03T16:24:52;7.78;;;1.80;;